METAR stanice u blizini

 

LYBE - Beograd / Surčin, Srbija
Ažurirano: 26/07/2021 03:00
Vedro
Vedro
 Pravac vetra JI
Vetar: JI 22 km/h
Temperatura: 26°C
Tačka rose: 14°C
Vlažnost: 48%
Pritisak: 1013 hPa
Pregled: Vedro
Vidljivost: greater than 10 km
2021/07/26 01:00 LYBE 260100Z 14012KT CAVOK 26/14 Q1013 NOSIG
LYBT - Beograd / Batajnica, Srbija
Ažurirano: 26/07/2021 03:00
Vedro
Vedro
 Pravac vetra I
Vetar: I 17 km/h
Temperatura: 24°C
Tačka rose: 14°C
Vlažnost: 54%
Pritisak: 1013 hPa
Pregled: Vedro
Vidljivost: greater than 10 km
2021/07/26 01:00 LYBT 260100Z 10009KT CAVOK 24/14 Q1013 NOSIG
LYVR - Vršac, Srbija
Ažurirano: 26/07/2021 03:00
Vedro
Vedro
 Pravac vetra JI
Vetar: JI 44 km/h, Maks.: 70 km/h
Temperatura: 27°C
Tačka rose: 11°C
Vlažnost: 37%
Pritisak: 1013 hPa
Pregled: Vedro
Vidljivost: greater than 10 km
2021/07/26 01:00 LYVR 260100Z AUTO 14024G38KT CAVOK 27/11 Q1013
 
LYKV - Lađevci, Srbija
Ažurirano: 26/07/2021 03:00
Vedro
Vedro
 Pravac vetra varies
Vetar: varies 4 km/h
Temperatura: 19°C
Tačka rose: 16°C
Vlažnost: 83%
Pritisak: 1015 hPa
Pregled: Vedro
Vidljivost: greater than 10 km
2021/07/26 01:00 LYKV 260100Z VRB02KT CAVOK 19/16 Q1015 NOSIG
LYNI - Niš, Srbija
Ažurirano: 26/07/2021 03:00
Vedro
Vedro
 Pravac vetra calm
Vetar: Tišina
Temperatura: 19°C
Tačka rose: 14°C
Vlažnost: 73%
Pritisak: 1016 hPa
Pregled: Vedro
Vidljivost: greater than 10 km
2021/07/26 01:00 LYNI 260100Z 00000KT CAVOK 19/14 Q1016 NOSIG
BKPR - Priština, Srbija
Ažurirano: 26/07/2021 03:00
Vedro
Vedro
 Pravac vetra varies
Vetar: varies 2 km/h
Temperatura: 17°C
Tačka rose: 15°C
Vlažnost: 88%
Pritisak: 1018 hPa
Pregled: Vedro
Vidljivost: greater than 10 km
2021/07/26 01:00 BKPR 260100Z VRB01KT CAVOK 17/15 Q1018 NOSIG
 
LHPP - Pecs / Pogany, Hungary
Ažurirano: 25/07/2021 19:45
NOT Current
Vedro
Vedro
 Pravac vetra JI
Vetar: JI 13 km/h
Temperatura: 28°C
Heat Index: 29°C
Tačka rose: 20°C
Vlažnost: 62%
Pritisak: 1011 hPa
Pregled: Vedro
Vidljivost: greater than 10 km
2021/07/25 17:45 LHPP 251745Z 13007KT CAVOK 28/20 Q1011
LHUD - Szeged, Hungary
Ažurirano: 04/07/2019 01:45
NOT Current
Vedro
Vedro
 Pravac vetra S
Vetar: S 7 km/h
Temperatura: 18°C
Tačka rose: 13°C
Vlažnost: 73%
Pritisak: 1019 hPa
Pregled: Vedro
Vidljivost: greater than 10 km
2019/07/03 23:45 LHUD 032345Z 35004KT CAVOK 18/13 Q1019
LRTR - Timisoara, Romania
Ažurirano: 26/07/2021 03:00
Vedro
Vedro
 Pravac vetra IJI
Vetar: IJI 15 km/h
Temperatura: 19°C
Tačka rose: 16°C
Vlažnost: 83%
Pritisak: 1014 hPa
Pregled: Vedro
Vidljivost: greater than 10 km
2021/07/26 01:00 LRTR 260100Z 11008KT CAVOK 19/16 Q1014
 
LRCV - Craiova, Romania
Ažurirano: 26/07/2021 03:00
Vedro
Vedro
 Pravac vetra SI
Vetar: SI 11 km/h
Temperatura: 18°C
Tačka rose: 13°C
Vlažnost: 73%
Pritisak: 1017 hPa
Pregled: Vedro
Vidljivost: greater than 10 km
2021/07/26 01:00 LRCV 260100Z 04006KT CAVOK 18/13 Q1017
LBSF - Sofia, Bulgaria
Ažurirano: 26/07/2021 03:00
Vedro
Vedro
 Pravac vetra IJI
Vetar: IJI 15 km/h
Temperatura: 18°C
Tačka rose: 11°C
Vlažnost: 64%
Pritisak: 1020 hPa
Pregled: Vedro
Vidljivost: greater than 10 km
2021/07/26 01:00 LBSF 260100Z 11008KT CAVOK 18/11 Q1020 NOSIG
LWSK - Skoplje, Makedonija
Ažurirano: 26/07/2021 03:00
Vedro
Vedro
 Pravac vetra calm
Vetar: Tišina
Temperatura: 20°C
Tačka rose: 14°C
Vlažnost: 69%
Pritisak: 1017 hPa
Pregled: Vedro
Vidljivost: greater than 10 km
2021/07/26 01:00 LWSK 260100Z 00000KT CAVOK 20/14 Q1017 NOSIG
 
LYPG - Podgorica, Crna Gora
Ažurirano: 26/07/2021 03:00
Vedro
Vedro
 Pravac vetra SZ
Vetar: SZ 6 km/h
Temperatura: 25°C
Tačka rose: 13°C
Vlažnost: 47%
Pritisak: 1014 hPa
Pregled: Vedro
Vidljivost: greater than 10 km
2021/07/26 01:00 LYPG 260100Z 31003KT CAVOK 25/13 Q1014 NOSIG
LQSA - Sarajevo, Bosna i Hercegovina
Ažurirano: 26/07/2021 03:00
Vedro
Vedro
 Pravac vetra varies
Vetar: varies 2 km/h
Temperatura: 19°C
Tačka rose: 14°C
Vlažnost: 73%
Pritisak: 1016 hPa
Pregled: Vedro
Vidljivost: greater than 10 km
2021/07/26 01:00 LQSA 260100Z VRB01KT CAVOK 19/14 Q1016
LDOS - Osijek, Hrvatksa
Ažurirano: 26/07/2021 03:00
Vedro
Vedro
 Pravac vetra varies
Vetar: varies 4 km/h
Temperatura: 21°C
Tačka rose: 17°C
Vlažnost: 78%
Pritisak: 1011 hPa
Pregled: Vedro
Vidljivost: greater than 10 km
2021/07/26 01:00 LDOS 260100Z VRB02KT CAVOK 21/17 Q1011